Time;durP1;ratioP1;P1;durP2;ratioP2;P2;SDS_P1;SDS_P2;PMS_P1;PMS_P2;Temp;Humidity;BMP_temperature;BMP_pressure;BME280_temperature;BME280_humidity;BME280_pressure;Samples;Min_cycle;Max_cycle;Signal;HPM_P1;HPM_P2
2022/05/16 00:00:50;;;;;;;7.33;6.83;;;;;;;9.25;81.67;102105.56;5031534;28;20474;-48
2022/05/16 00:03:18;;;;;;;6.80;6.40;;;;;;;9.20;82.09;102108.66;5031419;28;20432;-50
2022/05/16 00:05:45;;;;;;;6.53;6.10;;;;;;;9.16;82.53;102107.34;5031479;28;20946;-48
2022/05/16 00:08:13;;;;;;;6.97;6.67;;;;;;;9.14;82.64;102103.16;5031384;28;21006;-51
2022/05/16 00:10:42;;;;;;;7.07;6.60;;;;;;;9.08;82.51;102107.25;5030847;28;20464;-46
2022/05/16 00:13:10;;;;;;;7.43;6.73;;;;;;;9.06;82.66;102109.22;5031571;28;20437;-47
2022/05/16 00:15:37;;;;;;;7.03;6.40;;;;;;;9.03;83.07;102114.88;5031439;28;20440;-50
2022/05/16 00:18:06;;;;;;;7.23;6.70;;;;;;;8.99;83.30;102113.47;5031352;28;20532;-47
2022/05/16 00:20:34;;;;;;;6.50;6.10;;;;;;;8.97;83.64;102106.66;5030709;28;20467;-45
2022/05/16 00:23:02;;;;;;;7.83;7.33;;;;;;;8.93;83.75;102108.78;5031509;28;20427;-49
2022/05/16 00:25:29;;;;;;;7.13;6.33;;;;;;;8.90;83.99;102112.56;5031400;28;20436;-48
2022/05/16 00:27:58;;;;;;;6.67;6.37;;;;;;;8.87;84.18;102098.75;5031304;28;20436;-45
2022/05/16 00:30:27;;;;;;;7.57;6.90;;;;;;;8.84;84.61;102102.53;5030604;28;20468;-50
2022/05/16 00:32:54;;;;;;;7.47;7.07;;;;;;;8.83;84.98;102105.38;5031489;28;20806;-47
2022/05/16 00:35:23;;;;;;;7.43;6.73;;;;;;;8.80;84.63;102095.03;5031444;28;20945;-47
2022/05/16 00:37:51;;;;;;;7.67;7.13;;;;;;;8.76;85.04;102104.28;5031395;28;20432;-47
2022/05/16 00:40:20;;;;;;;8.50;6.30;;;;;;;8.75;85.53;102106.13;5030622;28;20460;-46
2022/05/16 00:42:48;;;;;;;6.57;6.17;;;;;;;8.75;85.54;102103.47;5031065;28;20969;-50
2022/05/16 00:45:18;;;;;;;6.70;6.27;;;;;;;8.75;85.38;102099.97;5031136;28;20535;-44
2022/05/16 00:47:47;;;;;;;6.47;6.07;;;;;;;8.73;86.10;102104.59;5031243;28;20428;-45
2022/05/16 00:50:15;;;;;;;6.00;5.70;;;;;;;8.75;85.63;102103.47;5030439;28;20471;-47
2022/05/16 00:52:45;;;;;;;6.33;5.73;;;;;;;8.78;86.10;102095.16;5031171;28;20818;-44
2022/05/16 00:55:17;;;;;;;7.27;6.73;;;;;;;8.80;86.21;102095.88;5031155;28;20436;-47
2022/05/16 00:57:49;;;;;;;6.30;5.90;;;;;;;8.85;86.12;102098.91;5031264;28;20420;-50
2022/05/16 01:00:21;;;;;;;5.97;5.73;;;;;;;8.90;86.06;102104.59;5030688;28;20471;-45
2022/05/16 01:05:37;;;;;;;6.23;5.73;;;;;;;8.99;86.05;102102.84;5034459;28;20446;-47
2022/05/16 01:08:09;;;;;;;6.23;5.70;;;;;;;9.00;85.72;102091.22;5034422;28;20440;-49
2022/05/16 01:10:37;;;;;;;5.43;5.23;;;;;;;8.99;85.31;102092.19;5033704;28;20466;-50
2022/05/16 01:13:05;;;;;;;5.73;5.43;;;;;;;8.99;85.01;102081.56;5034812;28;20438;-45
2022/05/16 01:15:37;;;;;;;5.23;5.00;;;;;;;8.99;85.25;102081.56;5034458;28;20458;-50
2022/05/16 01:18:06;;;;;;;6.33;5.93;;;;;;;8.97;84.65;102082.69;5034410;28;20723;-48
2022/05/16 01:20:53;;;;;;;6.47;5.80;;;;;;;8.96;84.68;102073.06;5033441;28;20468;-45
2022/05/16 01:23:24;;;;;;;6.40;6.07;;;;;;;8.92;84.70;102077.84;5034425;28;20424;-45
2022/05/16 01:25:53;;;;;;;6.50;5.93;;;;;;;8.89;84.83;102078.16;5034124;28;20925;-48
2022/05/16 01:28:23;;;;;;;6.27;5.77;;;;;;;8.84;84.37;102081.25;5034084;28;20443;-50
2022/05/16 01:30:52;;;;;;;6.90;6.60;;;;;;;8.80;84.38;102081.75;5033235;28;20996;-45
2022/05/16 01:33:23;;;;;;;6.50;6.20;;;;;;;8.74;84.65;102079.69;5034050;28;20456;-48
2022/05/16 01:35:51;;;;;;;6.63;6.30;;;;;;;8.67;84.36;102082.09;5034188;28;20445;-47
2022/05/16 01:38:22;;;;;;;6.97;6.47;;;;;;;8.59;84.26;102075.88;5034098;28;20425;-48
2022/05/16 01:40:54;;;;;;;7.13;6.50;;;;;;;8.52;84.84;102075.66;5033311;28;20464;-46
2022/05/16 01:43:24;;;;;;;6.80;6.13;;;;;;;8.45;84.98;102074.59;5033937;28;20432;-47
2022/05/16 01:45:51;;;;;;;6.33;5.93;;;;;;;8.41;85.42;102075.03;5034025;28;20798;-45
2022/05/16 01:48:20;;;;;;;6.87;6.30;;;;;;;8.40;85.70;102068.03;5033579;28;20531;-44
2022/05/16 01:50:49;;;;;;;6.40;6.10;;;;;;;8.40;85.95;102066.22;5033112;28;20464;-49
2022/05/16 01:53:18;;;;;;;6.93;6.57;;;;;;;8.42;86.15;102060.75;5033929;28;20444;-46
2022/05/16 01:55:46;;;;;;;7.57;7.17;;;;;;;8.44;86.56;102051.66;5033728;28;20471;-48
2022/05/16 01:58:15;;;;;;;7.73;7.03;;;;;;;8.47;86.70;102046.03;5033437;28;20443;-45
2022/05/16 02:00:42;;;;;;;7.87;7.33;;;;;;;8.51;86.80;102041.25;5032897;28;20463;-52
2022/05/16 02:03:10;;;;;;;7.03;6.60;;;;;;;8.56;87.14;102037.16;5033460;28;20436;-48
2022/05/16 02:05:37;;;;;;;7.27;6.70;;;;;;;8.62;87.84;102054.31;5033435;28;20441;-50
2022/05/16 02:08:07;;;;;;;6.90;6.40;;;;;;;8.69;87.85;102044.75;5033442;28;20941;-46
2022/05/16 02:10:35;;;;;;;6.57;6.20;;;;;;;8.75;87.74;102038.81;5032578;28;20468;-52
2022/05/16 02:13:03;;;;;;;7.00;6.40;;;;;;;8.80;87.68;102044.50;5033614;28;20427;-49
2022/05/16 02:15:34;;;;;;;6.47;6.07;;;;;;;8.88;87.92;102044.56;5033157;28;20474;-52
2022/05/16 02:18:02;;;;;;;8.47;6.77;;;;;;;8.95;87.45;102034.97;5033326;28;20420;-50
2022/05/16 02:20:30;;;;;;;6.03;5.83;;;;;;;9.05;87.94;102045.53;5032481;28;20826;-47
2022/05/16 02:25:45;;;;;;;8.73;6.40;;;;;;;9.22;87.51;102055.31;5033254;28;20440;-47
2022/05/16 02:28:16;;;;;;;7.20;6.60;;;;;;;9.31;87.72;102051.72;5033105;28;20807;-49
2022/05/16 02:30:52;;;;;;;6.93;6.40;;;;;;;9.37;87.70;102041.28;5032130;28;20472;-51
2022/05/16 02:33:20;;;;;;;9.07;7.10;;;;;;;9.42;87.61;102035.47;5033108;28;20486;-50
2022/05/16 02:35:48;;;;;;;7.10;6.50;;;;;;;9.49;87.63;102036.50;5032840;28;20451;-46
2022/05/16 02:38:18;;;;;;;7.47;6.80;;;;;;;9.53;87.72;102037.03;5032949;28;20432;-47
2022/05/16 02:40:46;;;;;;;10.83;7.60;;;;;;;9.61;87.84;102045.06;5032096;28;20464;-47
2022/05/16 02:43:13;;;;;;;8.33;7.53;;;;;;;9.67;88.08;102041.75;5032730;28;21082;-49
2022/05/16 02:45:41;;;;;;;8.87;8.27;;;;;;;9.74;88.02;102040.09;5032724;28;20443;-50
2022/05/16 02:48:10;;;;;;;8.00;7.60;;;;;;;9.79;87.78;102037.81;5032494;28;20490;-49
2022/05/16 02:50:38;;;;;;;8.07;7.47;;;;;;;9.82;87.65;102034.84;5031870;28;20464;-45
2022/05/16 02:53:07;;;;;;;6.60;6.20;;;;;;;9.86;87.54;102030.84;5032593;28;20432;-49
2022/05/16 02:55:34;;;;;;;7.33;6.83;;;;;;;9.90;87.66;102037.53;5032446;28;20944;-45
2022/05/16 02:58:02;;;;;;;7.50;6.70;;;;;;;9.92;87.18;102032.88;5032666;28;20441;-50
2022/05/16 03:00:30;;;;;;;7.17;6.67;;;;;;;9.95;87.16;102032.53;5031722;28;20456;-45
2022/05/16 03:02:58;;;;;;;8.27;7.53;;;;;;;9.97;87.07;102019.91;5032811;28;20442;-48
2022/05/16 03:05:27;;;;;;;7.30;6.70;;;;;;;10.00;86.89;102024.91;5032540;28;20436;-48
2022/05/16 03:07:54;;;;;;;7.30;6.30;;;;;;;10.03;86.82;102029.94;5032197;28;20922;-50
2022/05/16 03:10:22;;;;;;;8.00;7.30;;;;;;;10.06;86.81;102032.28;5031530;28;20984;-48
2022/05/16 03:12:51;;;;;;;7.27;6.57;;;;;;;10.10;86.86;102019.44;5031506;28;20817;-47
2022/05/16 03:15:19;;;;;;;9.03;7.17;;;;;;;10.13;86.76;102014.66;5031572;28;20433;-48
2022/05/16 03:17:47;;;;;;;10.23;7.70;;;;;;;10.15;86.71;102018.00;5032214;28;20424;-46
2022/05/16 03:20:16;;;;;;;7.80;7.30;;;;;;;10.18;86.98;102019.50;5031502;28;20480;-45
2022/05/16 03:22:45;;;;;;;7.80;7.20;;;;;;;10.23;87.03;102022.50;5031849;28;20448;-47
2022/05/16 03:25:13;;;;;;;8.30;7.80;;;;;;;10.25;86.89;102009.84;5030838;28;20459;-44
2022/05/16 03:27:41;;;;;;;8.33;7.70;;;;;;;10.28;87.19;102015.69;5031148;28;20438;-46
2022/05/16 03:30:11;;;;;;;8.77;8.03;;;;;;;10.35;87.52;102022.03;5031402;28;21031;-44
2022/05/16 03:32:38;;;;;;;7.67;7.17;;;;;;;10.41;87.64;102013.38;5031799;28;20460;-46
2022/05/16 03:35:08;;;;;;;8.20;7.60;;;;;;;10.47;87.82;102020.72;5032007;28;20535;-50
2022/05/16 03:37:36;;;;;;;7.63;7.03;;;;;;;10.53;87.89;102024.56;5031843;28;20817;-45
2022/05/16 03:42:51;;;;;;;9.17;8.50;;;;;;;10.61;87.50;102016.56;5032018;28;20454;-44
2022/05/16 03:45:19;;;;;;;8.57;7.90;;;;;;;10.67;87.63;102005.22;5031818;28;20527;-45
2022/05/16 03:47:48;;;;;;;9.40;8.63;;;;;;;10.72;87.41;102012.75;5031735;28;20523;-45
2022/05/16 03:50:15;;;;;;;7.70;7.10;;;;;;;10.78;87.32;102006.75;5030965;28;20483;-44
2022/05/16 03:52:44;;;;;;;7.73;7.23;;;;;;;10.84;87.34;102011.41;5031464;28;20459;-44
2022/05/16 03:55:16;;;;;;;8.50;7.70;;;;;;;10.88;87.13;102008.22;5031871;28;20531;-45
2022/05/16 03:57:44;;;;;;;8.80;8.20;;;;;;;10.93;87.10;102016.56;5031964;28;20439;-46
2022/05/16 04:00:15;;;;;;;7.77;7.27;;;;;;;10.98;87.26;102014.22;5031258;28;20845;-45
2022/05/16 04:02:43;;;;;;;9.43;8.83;;;;;;;11.02;87.01;102012.06;5031587;28;20491;-46
2022/05/16 04:05:15;;;;;;;8.70;7.90;;;;;;;11.05;86.65;102014.41;5031375;28;20440;-47
2022/05/16 04:07:43;;;;;;;10.40;8.10;;;;;;;11.09;86.75;102015.72;5031649;28;20460;-50
2022/05/16 04:10:12;;;;;;;11.60;7.80;;;;;;;11.12;86.67;102020.72;5031029;28;20527;-45
2022/05/16 04:12:40;;;;;;;8.63;7.83;;;;;;;11.16;86.20;102022.06;5031391;28;20448;-47
2022/05/16 04:15:10;;;;;;;11.43;8.07;;;;;;;11.17;85.99;102021.03;5031587;28;20444;-47
2022/05/16 04:17:38;;;;;;;8.70;7.90;;;;;;;11.19;86.24;102023.53;5031307;28;20780;-48
2022/05/16 04:20:07;;;;;;;8.73;8.13;;;;;;;11.22;86.01;102029.38;5031015;28;20448;-48
2022/05/16 04:22:35;;;;;;;8.50;7.90;;;;;;;11.27;85.98;102035.03;5031283;28;21036;-49
2022/05/16 04:25:03;;;;;;;8.93;8.07;;;;;;;11.32;85.88;102021.19;5031661;28;20424;-47
2022/05/16 04:27:32;;;;;;;10.00;9.10;;;;;;;11.41;86.20;102031.66;5031486;28;20436;-49
2022/05/16 04:29:59;;;;;;;8.20;7.50;;;;;;;11.52;86.32;102027.81;5030735;28;20468;-47
2022/05/16 04:32:27;;;;;;;12.53;8.80;;;;;;;11.67;86.49;102020.75;5030966;28;20470;-49
2022/05/16 04:34:54;;;;;;;9.10;8.27;;;;;;;11.83;86.60;102015.34;5031462;28;20949;-50
2022/05/16 04:37:22;;;;;;;8.60;8.00;;;;;;;11.95;86.37;102010.44;5031673;28;20840;-51
2022/05/16 04:39:49;;;;;;;9.47;8.57;;;;;;;12.08;85.70;102014.25;5034615;28;20932;-45
2022/05/16 04:45:04;;;;;;;8.03;7.53;;;;;;;12.38;85.01;102015.22;5035123;28;20446;-50
2022/05/16 04:47:32;;;;;;;9.57;8.70;;;;;;;12.50;83.65;102004.94;5034924;28;20438;-51
2022/05/16 04:50:00;;;;;;;9.27;8.47;;;;;;;12.69;83.81;102013.31;5034368;28;20456;-47
2022/05/16 04:52:28;;;;;;;8.10;7.50;;;;;;;12.87;83.54;102014.88;5034447;28;20478;-46
2022/05/16 04:54:55;;;;;;;11.80;8.70;;;;;;;13.10;82.62;102005.81;5034745;28;20454;-46
2022/05/16 04:57:23;;;;;;;9.50;7.80;;;;;;;13.37;81.11;102006.19;5034639;28;20432;-48
2022/05/16 04:59:51;;;;;;;9.43;8.60;;;;;;;13.63;79.36;101995.84;5034430;28;20468;-50
2022/05/16 05:02:20;;;;;;;7.80;7.00;;;;;;;14.17;78.10;102001.66;5034506;28;20468;-53
2022/05/16 05:04:48;;;;;;;11.97;8.23;;;;;;;14.81;73.50;101991.81;5034828;28;20431;-48
2022/05/16 05:07:16;;;;;;;8.10;6.13;;;;;;;16.30;70.50;101984.75;5034629;28;20829;-49
2022/05/16 05:15:17;;;;;;;7.43;6.20;;;;;;;18.90;57.91;101979.00;5034570;28;20459;-47
2022/05/16 05:17:47;;;;;;;7.83;5.77;;;;;;;18.94;54.46;101975.63;5034413;28;20432;-51
2022/05/16 05:20:16;;;;;;;6.20;5.67;;;;;;;18.70;56.74;101974.56;5033555;28;20463;-50
2022/05/16 05:22:47;;;;;;;7.27;6.67;;;;;;;19.06;56.90;101976.53;5034514;28;20455;-52
2022/05/16 05:25:18;;;;;;;8.03;5.63;;;;;;;19.74;52.42;101979.97;5034511;28;20447;-53
2022/05/16 05:27:48;;;;;;;11.73;6.40;;;;;;;19.58;53.26;101969.78;5034310;28;20454;-46
2022/05/16 05:30:19;;;;;;;7.07;6.50;;;;;;;19.22;53.29;101983.25;5033496;28;20463;-49
2022/05/16 05:32:48;;;;;;;6.30;5.80;;;;;;;18.87;55.45;101979.44;5033719;28;20483;-48
2022/05/16 05:35:16;;;;;;;6.07;5.60;;;;;;;18.66;54.52;101973.38;5034249;28;20447;-51
2022/05/16 05:37:45;;;;;;;8.03;6.10;;;;;;;18.24;55.11;101984.84;5033961;28;20955;-49
2022/05/16 05:40:14;;;;;;;10.07;6.80;;;;;;;17.76;56.59;101989.03;5033434;28;20474;-47
2022/05/16 05:42:42;;;;;;;7.63;6.83;;;;;;;17.56;56.68;101981.81;5034045;28;20447;-49
2022/05/16 05:45:11;;;;;;;9.40;6.50;;;;;;;17.82;57.62;101980.91;5033859;28;20969;-48
2022/05/16 05:47:39;;;;;;;9.07;6.43;;;;;;;19.11;53.87;101981.28;5034236;28;20431;-49
2022/05/16 05:50:09;;;;;;;5.97;5.30;;;;;;;20.52;50.95;101982.66;5032800;28;20817;-51
2022/05/16 05:52:38;;;;;;;8.43;5.60;;;;;;;20.97;48.61;101972.13;5033581;28;21127;-51
2022/05/16 05:55:07;;;;;;;5.50;5.00;;;;;;;21.05;47.76;101979.09;5033729;28;20438;-51
2022/05/16 05:57:34;;;;;;;5.73;5.33;;;;;;;20.94;49.71;101980.72;5033513;28;20443;-50
2022/05/16 06:00:04;;;;;;;8.13;5.17;;;;;;;20.59;49.10;101979.88;5033284;28;20467;-52
2022/05/16 06:02:32;;;;;;;7.23;4.90;;;;;;;20.98;49.66;101971.06;5033403;28;20805;-52
2022/05/16 06:05:00;;;;;;;5.57;5.20;;;;;;;21.21;45.57;101978.41;5033427;28;20805;-49
2022/05/16 06:07:29;;;;;;;6.50;5.10;;;;;;;21.55;45.23;101984.84;5033377;28;20929;-51
2022/05/16 06:09:56;;;;;;;7.30;5.17;;;;;;;22.36;44.27;101981.88;5033060;28;20876;-51
2022/05/16 06:12:28;;;;;;;8.13;4.37;;;;;;;23.04;41.84;101978.97;5032901;28;20483;-48
2022/05/16 06:14:55;;;;;;;6.90;4.70;;;;;;;23.28;40.09;101974.97;5033560;28;20438;-46
2022/05/16 06:17:23;;;;;;;4.90;4.50;;;;;;;23.87;41.70;101975.19;5033936;28;20432;-46
2022/05/16 06:19:50;;;;;;;5.30;4.33;;;;;;;24.17;38.71;101972.81;5032945;28;20474;-49
2022/05/16 06:22:19;;;;;;;5.07;4.40;;;;;;;24.49;39.70;101968.22;5033053;28;20448;-50
2022/05/16 06:27:32;;;;;;;3.83;3.60;;;;;;;24.67;35.19;101970.56;5033048;28;20431;-50
2022/05/16 06:30:00;;;;;;;4.67;4.00;;;;;;;23.62;38.22;101971.06;5032781;28;20468;-47
2022/05/16 06:32:34;;;;;;;7.33;4.40;;;;;;;23.99;38.88;101962.25;5032698;28;20480;-47
2022/05/16 06:35:02;;;;;;;6.00;4.17;;;;;;;23.65;38.12;101965.13;5032872;28;20432;-48
2022/05/16 06:37:29;;;;;;;4.70;4.40;;;;;;;22.81;38.98;101970.97;5033073;28;20428;-49
2022/05/16 06:39:58;;;;;;;6.90;4.70;;;;;;;22.92;40.42;101962.72;5032573;28;20839;-47
2022/05/16 06:42:26;;;;;;;5.80;4.53;;;;;;;23.84;38.57;101964.78;5032833;28;20498;-46
2022/05/16 06:44:54;;;;;;;4.73;4.23;;;;;;;23.55;37.84;101956.84;5032773;28;20494;-51
2022/05/16 06:47:22;;;;;;;6.00;4.63;;;;;;;24.20;39.26;101964.97;5032599;28;20427;-49
2022/05/16 06:49:50;;;;;;;5.13;4.50;;;;;;;24.07;37.37;101967.25;5032121;28;21046;-45
2022/05/16 06:52:17;;;;;;;5.00;3.93;;;;;;;24.10;38.62;101970.28;5032431;28;20482;-51
2022/05/16 06:54:45;;;;;;;5.57;4.33;;;;;;;23.72;38.06;101973.09;5032708;28;20443;-48
2022/05/16 06:57:15;;;;;;;5.23;4.20;;;;;;;23.46;39.71;101976.59;5032431;28;20937;-48
2022/05/16 06:59:42;;;;;;;4.63;4.20;;;;;;;22.74;39.01;101964.88;5032313;28;20459;-46
2022/05/16 07:02:10;;;;;;;4.20;3.57;;;;;;;22.15;40.17;101966.28;5031066;28;20448;-47
2022/05/16 07:04:39;;;;;;;6.20;4.17;;;;;;;21.07;41.96;101975.09;5032647;28;20443;-49
2022/05/16 07:07:08;;;;;;;7.10;4.10;;;;;;;20.96;42.17;101987.59;5032544;28;20475;-47
2022/05/16 07:09:37;;;;;;;4.43;3.97;;;;;;;20.93;43.50;101987.22;5031992;28;20467;-46
2022/05/16 07:12:06;;;;;;;5.23;3.90;;;;;;;20.99;43.30;101986.28;5032272;28;20486;-45
2022/05/16 07:14:38;;;;;;;5.37;3.87;;;;;;;21.49;42.79;101982.03;5032484;28;20436;-48
2022/05/16 07:17:06;;;;;;;5.10;3.93;;;;;;;21.70;42.39;101987.91;5032113;28;20416;-44
2022/05/16 07:19:35;;;;;;;3.23;3.00;;;;;;;21.57;41.09;101991.69;5031890;28;20456;-46
2022/05/16 07:22:04;;;;;;;3.80;3.57;;;;;;;21.45;42.08;101990.88;5032229;28;20452;-47
2022/05/16 07:24:31;;;;;;;4.60;4.30;;;;;;;21.74;42.14;101989.06;5032032;28;20951;-48
2022/05/16 07:29:45;;;;;;;5.30;3.87;;;;;;;21.69;40.31;101992.50;5031977;28;20463;-46
2022/05/16 07:32:13;;;;;;;5.90;3.97;;;;;;;21.41;41.34;101989.72;5031640;28;20490;-46
2022/05/16 07:34:41;;;;;;;5.57;3.50;;;;;;;21.36;41.64;101989.59;5031946;28;20483;-43
2022/05/16 07:37:09;;;;;;;4.20;3.80;;;;;;;21.11;41.55;101987.16;5031789;28;20951;-44
2022/05/16 07:39:38;;;;;;;6.03;4.20;;;;;;;21.74;41.48;101986.34;5031869;28;20463;-45
2022/05/16 07:42:08;;;;;;;4.30;4.00;;;;;;;22.13;40.04;101988.25;5031508;28;20840;-47
2022/05/16 07:44:37;;;;;;;6.47;4.67;;;;;;;22.42;40.36;101989.88;5031960;28;20441;-43
2022/05/16 07:47:07;;;;;;;4.90;4.50;;;;;;;22.68;40.96;101985.72;5031626;28;20802;-47
2022/05/16 07:49:34;;;;;;;4.60;4.07;;;;;;;22.43;39.99;101999.66;5031099;28;20470;-44
2022/05/16 07:52:02;;;;;;;4.40;4.00;;;;;;;22.27;40.54;101989.59;5031521;28;20574;-45
2022/05/16 07:54:30;;;;;;;5.43;4.70;;;;;;;22.18;41.31;101985.63;5031903;28;20442;-44
2022/05/16 07:56:57;;;;;;;4.47;4.20;;;;;;;21.84;42.00;101983.84;5031980;28;20467;-46
2022/05/16 07:59:25;;;;;;;6.33;4.70;;;;;;;21.43;43.34;101988.44;5031225;28;20431;-47
2022/05/16 08:01:52;;;;;;;5.03;4.67;;;;;;;21.49;43.62;101982.03;5031525;28;20455;-45
2022/05/16 08:04:22;;;;;;;5.63;4.60;;;;;;;21.62;43.68;101980.13;5031607;28;20435;-45
2022/05/16 08:06:50;;;;;;;4.70;4.30;;;;;;;20.97;45.07;101985.69;5031530;28;20953;-49
2022/05/16 08:12:03;;;;;;;4.90;4.40;;;;;;;19.96;48.72;101971.38;5031324;28;20447;-45
2022/05/16 08:14:30;;;;;;;5.60;5.10;;;;;;;19.96;48.08;101966.78;5035329;28;20432;-44
2022/05/16 08:16:59;;;;;;;8.10;5.20;;;;;;;20.11;48.00;101971.81;5035476;28;20442;-46
2022/05/16 08:19:29;;;;;;;6.30;5.10;;;;;;;19.99;49.14;101962.81;5035097;28;20459;-46
2022/05/16 08:21:57;;;;;;;5.60;5.20;;;;;;;20.25;49.14;101970.56;5035331;28;20459;-44
2022/05/16 08:24:24;;;;;;;5.67;5.27;;;;;;;20.58;49.84;101968.19;5035475;28;21032;-49
2022/05/16 08:26:52;;;;;;;5.93;5.53;;;;;;;20.76;48.32;101954.56;5035467;28;20432;-44
2022/05/16 08:29:20;;;;;;;6.37;5.80;;;;;;;20.68;48.76;101951.38;5034761;28;20431;-43
2022/05/16 08:31:47;;;;;;;6.40;5.77;;;;;;;20.56;49.22;101947.81;5034939;28;20477;-44
2022/05/16 08:34:15;;;;;;;6.93;5.63;;;;;;;20.39;48.84;101947.66;5035321;28;20869;-46
2022/05/16 08:42:14;;;;;;;9.17;6.67;;;;;;;20.49;49.91;101947.91;5035166;28;20462;-44
2022/05/16 08:44:49;;;;;;;8.00;5.87;;;;;;;20.48;49.45;101940.03;5034940;28;20439;-44
2022/05/16 08:47:28;;;;;;;6.33;5.23;;;;;;;20.51;49.88;101937.69;5035197;28;20427;-43
2022/05/16 08:49:57;;;;;;;5.43;5.00;;;;;;;20.86;48.47;101927.69;5034722;28;20471;-43
2022/05/16 08:52:38;;;;;;;5.60;5.10;;;;;;;21.23;46.80;101938.31;5034470;28;20447;-44
2022/05/16 08:55:12;;;;;;;5.63;5.23;;;;;;;21.07;47.94;101941.72;5035223;28;20438;-43
2022/05/16 08:57:52;;;;;;;5.23;4.50;;;;;;;21.02;47.53;101942.44;5034942;28;20510;-50
2022/05/16 09:00:25;;;;;;;5.70;5.13;;;;;;;20.99;47.45;101953.75;5034260;28;20473;-52
2022/05/16 09:02:55;;;;;;;8.27;5.03;;;;;;;20.97;47.21;101961.28;5034613;28;20454;-50
2022/05/16 09:05:27;;;;;;;5.93;5.43;;;;;;;20.88;47.75;101951.84;5034546;28;20440;-49
2022/05/16 09:07:58;;;;;;;6.50;5.87;;;;;;;21.08;46.68;101967.78;5034591;28;20408;-49
2022/05/16 09:10:31;;;;;;;8.40;5.50;;;;;;;21.13;47.33;101963.31;5034012;28;20521;-49
2022/05/16 09:13:07;;;;;;;7.10;4.67;;;;;;;21.33;47.18;101952.91;5034654;28;20475;-45
2022/05/16 09:15:42;;;;;;;5.40;4.70;;;;;;;21.18;46.87;101957.16;5034313;28;20453;-49
2022/05/16 09:18:32;;;;;;;8.00;6.00;;;;;;;20.85;48.04;101942.28;5034672;28;20431;-46
2022/05/16 09:21:08;;;;;;;5.90;5.00;;;;;;;20.70;47.55;101944.66;5033871;28;20494;-45
2022/05/16 09:24:04;;;;;;;6.93;5.23;;;;;;;20.52;48.24;101947.44;5034124;28;20443;-49
2022/05/16 09:26:40;;;;;;;9.53;5.00;;;;;;;20.38;48.39;101946.00;5034269;28;20439;-46
2022/05/16 09:29:17;;;;;;;5.67;5.17;;;;;;;20.15;48.99;101940.50;5033748;28;20442;-51
2022/05/16 09:31:48;;;;;;;6.00;5.00;;;;;;;20.39;49.13;101934.97;5033896;28;20459;-48
2022/05/16 09:34:23;;;;;;;8.50;6.17;;;;;;;20.55;49.93;101930.72;5034262;28;20471;-46
2022/05/16 09:36:51;;;;;;;9.10;6.40;;;;;;;20.37;49.21;101926.22;5034107;28;20921;-49
2022/05/16 09:39:23;;;;;;;7.80;5.53;;;;;;;20.77;48.72;101937.22;5033844;28;20432;-48
2022/05/16 09:42:03;;;;;;;4.83;4.43;;;;;;;20.90;47.67;101939.72;5033742;28;20452;-43
2022/05/16 09:44:33;;;;;;;6.83;5.37;;;;;;;20.86;48.13;101935.81;5033862;28;20462;-49
2022/05/16 09:47:23;;;;;;;6.40;5.80;;;;;;;20.47;49.26;101917.53;5033907;28;20458;-46
2022/05/16 09:50:11;;;;;;;5.67;4.97;;;;;;;20.08;51.63;101940.59;5026259;28;20991;-49
2022/05/16 09:52:45;;;;;;;6.00;5.43;;;;;;;20.01;50.62;101947.97;5033659;28;20813;-51
2022/05/16 09:55:25;;;;;;;6.40;5.80;;;;;;;20.02;50.76;101941.50;5033690;28;20445;-52
2022/05/16 09:57:56;;;;;;;8.00;4.97;;;;;;;20.03;50.21;101931.50;5033890;28;20431;-49
2022/05/16 10:00:33;;;;;;;5.20;4.80;;;;;;;20.11;50.82;101931.19;5033105;28;20845;-48
2022/05/16 10:03:14;;;;;;;5.97;5.37;;;;;;;20.20;50.70;101940.63;5033716;28;20432;-44
2022/05/16 10:05:46;;;;;;;5.70;5.10;;;;;;;19.85;51.30;101935.09;5033346;28;20470;-47
2022/05/16 10:08:25;;;;;;;6.70;5.27;;;;;;;19.97;51.14;101941.38;5033532;28;20904;-52
2022/05/16 10:10:55;;;;;;;6.10;5.43;;;;;;;20.14;51.19;101936.13;5032931;28;20471;-49
2022/05/16 10:13:23;;;;;;;5.80;5.30;;;;;;;20.36;50.18;101937.31;5033427;28;20471;-49
2022/05/16 10:15:55;;;;;;;7.40;5.77;;;;;;;20.36;49.65;101942.72;5033300;28;20435;-50
2022/05/16 10:18:25;;;;;;;13.07;6.13;;;;;;;20.05;50.30;101932.94;5033400;28;20427;-49
2022/05/16 10:20:58;;;;;;;6.03;5.07;;;;;;;20.07;50.67;101930.81;5032574;28;20992;-48
2022/05/16 10:23:30;;;;;;;10.30;7.07;;;;;;;20.20;50.14;101929.78;5033388;28;20428;-49
2022/05/16 10:26:04;;;;;;;9.53;5.53;;;;;;;20.13;50.44;101931.78;5033183;28;20439;-49
2022/05/16 10:28:36;;;;;;;9.87;6.37;;;;;;;20.19;50.38;101934.38;5033180;28;20431;-44
2022/05/16 10:33:59;;;;;;;6.70;5.00;;;;;;;19.88;51.17;101935.47;5033111;28;20479;-49
2022/05/16 10:36:30;;;;;;;6.13;5.13;;;;;;;19.97;51.10;101938.69;5032839;28;20436;-49
2022/05/16 10:39:04;;;;;;;8.20;5.70;;;;;;;19.86;50.69;101926.72;5032878;28;20460;-49
2022/05/16 10:41:37;;;;;;;6.03;5.43;;;;;;;20.07;50.11;101922.69;5032434;28;20848;-49
2022/05/16 10:44:16;;;;;;;8.43;5.97;;;;;;;20.01;49.48;101937.13;5032941;28;20502;-49
2022/05/16 10:47:00;;;;;;;6.00;5.20;;;;;;;20.04;49.75;101915.03;5032738;28;20445;-48
2022/05/16 10:49:36;;;;;;;8.60;5.87;;;;;;;19.66;49.74;101925.34;5031970;28;20456;-49
2022/05/16 10:52:17;;;;;;;6.80;6.20;;;;;;;19.79;51.63;101920.59;5032821;28;20455;-48
2022/05/16 10:54:45;;;;;;;5.90;5.10;;;;;;;19.99;50.68;101914.06;5032910;28;20482;-49
2022/05/16 10:57:50;;;;;;;9.73;6.30;;;;;;;19.85;50.10;101911.56;5032741;28;20435;-46
2022/05/16 11:00:24;;;;;;;10.63;6.10;;;;;;;20.24;50.21;101921.00;5027036;28;20489;-47
2022/05/16 11:03:08;;;;;;;8.60;6.07;;;;;;;20.15;50.25;101922.38;5032455;28;20590;-46
2022/05/16 11:05:50;;;;;;;6.20;5.00;;;;;;;20.23;50.51;101913.06;5032546;28;20453;-45
2022/05/16 11:08:29;;;;;;;7.30;5.30;;;;;;;20.02;50.64;101927.13;5032281;28;20428;-50
2022/05/16 11:11:03;;;;;;;7.73;5.60;;;;;;;20.11;50.92;101923.06;5031861;28;20467;-48
2022/05/16 11:13:43;;;;;;;7.17;5.47;;;;;;;20.20;49.60;101921.66;5032290;28;20431;-50
2022/05/16 11:16:15;;;;;;;6.57;5.13;;;;;;;20.13;50.06;101913.63;5032580;28;20420;-48
2022/05/16 11:18:49;;;;;;;5.47;4.97;;;;;;;19.86;49.96;101909.69;5032207;28;20435;-51
2022/05/16 11:21:31;;;;;;;5.73;4.80;;;;;;;20.28;48.92;101907.84;5031507;28;20489;-47
2022/05/16 11:24:10;;;;;;;6.00;4.97;;;;;;;20.36;49.00;101910.22;5032279;28;20428;-50
2022/05/16 11:26:44;;;;;;;7.77;4.47;;;;;;;20.23;48.31;101904.94;5032127;28;20432;-47
2022/05/16 11:29:23;;;;;;;9.00;5.70;;;;;;;20.10;48.91;101913.28;5031609;28;20432;-50
2022/05/16 11:32:01;;;;;;;7.10;4.80;;;;;;;20.17;49.67;101906.72;5031789;28;20463;-49
2022/05/16 11:34:42;;;;;;;7.70;5.10;;;;;;;19.94;50.23;101916.66;5032216;28;20455;-45
2022/05/16 11:37:23;;;;;;;6.70;5.20;;;;;;;19.83;50.92;101900.13;5031887;28;20439;-46
2022/05/16 11:39:57;;;;;;;8.13;5.40;;;;;;;19.82;49.08;101903.06;5031609;28;20470;-53
2022/05/16 11:42:33;;;;;;;9.80;6.13;;;;;;;20.03;50.62;101899.03;5031785;28;20820;-50
2022/05/16 11:45:16;;;;;;;9.23;5.77;;;;;;;19.76;48.90;101901.28;5032294;28;20494;-43
2022/05/16 11:47:50;;;;;;;6.17;4.73;;;;;;;19.75;49.99;101918.56;5031053;28;20459;-46
2022/05/16 11:50:43;;;;;;;10.03;5.10;;;;;;;19.77;50.41;101900.22;5030823;28;20487;-47
2022/05/16 11:53:35;;;;;;;8.33;4.50;;;;;;;19.75;51.13;101889.63;5031811;28;20432;-44
2022/05/16 12:01:37;;;;;;;10.13;5.67;;;;;;;19.92;51.08;101889.81;5031268;28;20550;-46
2022/05/16 12:04:12;;;;;;;9.33;5.40;;;;;;;19.94;50.01;101893.09;5031667;28;20921;-46
2022/05/16 12:06:44;;;;;;;6.13;5.47;;;;;;;19.88;50.29;101880.50;5031915;28;20416;-45
2022/05/16 12:09:20;;;;;;;7.73;5.60;;;;;;;19.76;50.33;101910.22;5031342;28;20438;-48
2022/05/16 12:11:54;;;;;;;5.23;4.70;;;;;;;19.77;50.54;101892.91;5031468;28;20458;-45
2022/05/16 12:14:30;;;;;;;6.77;5.17;;;;;;;19.69;50.57;101890.53;5031527;28;20509;-46
2022/05/16 12:17:17;;;;;;;6.80;5.13;;;;;;;19.60;50.23;101886.50;5069186;22;20485;-45
2022/05/16 12:19:48;;;;;;;12.23;5.00;;;;;;;19.55;50.42;101896.34;5055058;28;20545;-47
2022/05/16 12:22:21;;;;;;;6.93;6.03;;;;;;;19.53;50.13;101887.66;5071258;28;20430;-46